createdAt,value
2022-09-12T00:02:10.475Z,101243.38
2022-09-12T00:08:46.025Z,101245.93
2022-09-12T00:11:14.751Z,101245.45
2022-09-12T00:13:43.521Z,101245.16
2022-09-12T00:16:21.084Z,101251.11
2022-09-12T00:18:49.359Z,101249.46
2022-09-12T00:21:18.979Z,101250.02
2022-09-12T00:23:47.495Z,101251.84
2022-09-12T00:26:16.202Z,101250.98
2022-09-12T00:28:45.469Z,101252.61
2022-09-12T00:31:17.442Z,101253.41
2022-09-12T00:33:46.169Z,101250.75
2022-09-12T00:36:17.340Z,101246.84
2022-09-12T00:38:46.333Z,101243.96
2022-09-12T00:41:23.291Z,101247.73
2022-09-12T00:43:58.694Z,101244.69
2022-09-12T00:46:39.401Z,101243.34
2022-09-12T00:49:21.259Z,101244.61
2022-09-12T00:56:02.595Z,101245.95
2022-09-12T00:58:40.906Z,101250.55
2022-09-12T01:01:09.154Z,101245.86
2022-09-12T01:03:37.774Z,101247.65
2022-09-12T01:06:16.386Z,101246.30
2022-09-12T01:08:47.791Z,101246.27
2022-09-12T01:11:16.684Z,101247.38
2022-09-12T01:13:45.611Z,101248.55
2022-09-12T01:16:13.838Z,101252.14
2022-09-12T01:18:42.359Z,101254.50
2022-09-12T01:21:25.415Z,101257.73
2022-09-12T01:24:17.555Z,101252.30
2022-09-12T01:26:51.546Z,101256.98
2022-09-12T01:29:57.655Z,101250.33
2022-09-12T01:32:32.524Z,101251.39
2022-09-12T01:35:23.071Z,101248.20
2022-09-12T01:37:54.378Z,101249.89
2022-09-12T01:40:52.391Z,101254.45
2022-09-12T01:43:26.840Z,101252.84
2022-09-12T01:46:45.855Z,101255.29
2022-09-12T01:49:29.939Z,101259.61
2022-09-12T01:52:21.387Z,101259.86
2022-09-12T01:55:16.719Z,101256.86
2022-09-12T01:58:23.972Z,101254.25
2022-09-12T02:01:07.998Z,101258.28
2022-09-12T02:04:31.107Z,101256.17
2022-09-12T02:07:12.421Z,101254.86
2022-09-12T02:09:49.301Z,101255.15
2022-09-12T02:12:24.017Z,101257.06
2022-09-12T02:15:04.367Z,101254.38
2022-09-12T02:18:28.062Z,101253.25
2022-09-12T02:20:57.539Z,101253.67
2022-09-12T02:23:32.049Z,101254.36
2022-09-12T02:26:06.711Z,101255.77
2022-09-12T02:28:38.495Z,101258.17
2022-09-12T02:31:37.614Z,101261.57
2022-09-12T02:34:34.835Z,101261.01
2022-09-12T02:37:07.190Z,101263.05
2022-09-12T02:39:36.303Z,101267.53
2022-09-12T02:42:05.290Z,101269.48
2022-09-12T02:44:35.098Z,101268.85
2022-09-12T02:47:15.738Z,101270.86
2022-09-12T02:49:44.419Z,101270.02
2022-09-12T02:52:12.690Z,101270.79
2022-09-12T02:54:41.274Z,101269.33
2022-09-12T02:57:23.194Z,101263.23
2022-09-12T02:59:55.362Z,101269.80
2022-09-12T03:02:42.734Z,101269.81
2022-09-12T03:05:38.186Z,101239.19
2022-09-12T03:08:35.702Z,101269.58
2022-09-12T03:11:30.042Z,101256.39
2022-09-12T03:13:58.182Z,101271.02
2022-09-12T03:16:32.262Z,101280.21
2022-09-12T03:19:14.647Z,101272.67
2022-09-12T03:21:58.822Z,101279.02
2022-09-12T03:24:33.421Z,101277.45
2022-09-12T03:27:32.894Z,101280.09
2022-09-12T03:30:01.890Z,101281.84
2022-09-12T03:32:49.750Z,101284.42
2022-09-12T03:35:22.956Z,101291.41
2022-09-12T03:37:52.323Z,101294.30
2022-09-12T03:40:20.905Z,101299.40
2022-09-12T03:42:49.577Z,101301.77
2022-09-12T03:45:17.993Z,101301.17
2022-09-12T03:47:46.266Z,101299.69
2022-09-12T03:50:14.630Z,101303.84
2022-09-12T03:52:42.874Z,101302.52
2022-09-12T03:55:11.157Z,101309.30
2022-09-12T03:57:39.554Z,101310.16
2022-09-12T04:00:12.336Z,101312.75
2022-09-12T04:02:41.729Z,101314.35
2022-09-12T04:05:09.850Z,101315.48
2022-09-12T04:07:38.266Z,101320.83
2022-09-12T04:10:07.299Z,101324.31
2022-09-12T04:12:35.982Z,101325.11
2022-09-12T04:15:04.438Z,101324.42
2022-09-12T04:17:32.705Z,101327.66
2022-09-12T04:20:01.550Z,101327.73
2022-09-12T04:22:32.041Z,101324.38
2022-09-12T04:25:03.874Z,101321.53
2022-09-12T04:27:32.216Z,101323.29
2022-09-12T04:30:01.345Z,101322.94
2022-09-12T04:32:31.421Z,101322.86
2022-09-12T04:34:59.733Z,101327.91
2022-09-12T04:37:27.955Z,101327.15
2022-09-12T04:39:59.320Z,101327.29
2022-09-12T04:42:56.157Z,101327.98
2022-09-12T04:45:24.371Z,101329.35
2022-09-12T04:47:52.596Z,101328.92
2022-09-12T04:50:20.883Z,101330.63
2022-09-12T04:52:55.763Z,101329.48
2022-09-12T04:55:25.691Z,101327.33
2022-09-12T04:57:53.891Z,101332.52
2022-09-12T05:00:23.123Z,101333.56
2022-09-12T05:03:19.563Z,101332.46
2022-09-12T05:05:47.716Z,101329.11
2022-09-12T05:08:15.907Z,101332.82
2022-09-12T05:10:44.164Z,101332.27
2022-09-12T05:13:12.415Z,101334.44
2022-09-12T05:15:40.767Z,101333.51
2022-09-12T05:18:59.954Z,101336.89
2022-09-12T05:21:31.491Z,101340.55
2022-09-12T05:24:02.437Z,101327.23
2022-09-12T05:26:30.851Z,101340.97
2022-09-12T05:28:59.031Z,101344.64
2022-09-12T05:31:28.843Z,101341.92
2022-09-12T05:33:57.679Z,101342.90
2022-09-12T05:37:41.035Z,101343.06
2022-09-12T05:44:19.050Z,101346.28
2022-09-12T05:46:50.560Z,101343.58
2022-09-12T05:49:18.969Z,101339.77
2022-09-12T05:51:47.206Z,101345.04
2022-09-12T05:54:18.954Z,101343.53
2022-09-12T05:56:48.167Z,101345.23
2022-09-12T05:59:19.270Z,101345.44
2022-09-12T06:01:48.918Z,101347.67
2022-09-12T06:04:17.737Z,101347.63
2022-09-12T06:06:46.985Z,101334.20
2022-09-12T06:09:17.075Z,101352.54
2022-09-12T06:11:46.470Z,101351.74
2022-09-12T06:14:17.903Z,101347.06
2022-09-12T06:16:47.505Z,101347.83
2022-09-12T06:19:19.090Z,101347.83
2022-09-12T06:21:49.697Z,101341.59
2022-09-12T06:24:19.422Z,101347.88
2022-09-12T06:26:49.159Z,101346.30
2022-09-12T06:29:17.425Z,101346.66
2022-09-12T06:31:45.941Z,101354.59
2022-09-12T06:34:15.688Z,101355.38
2022-09-12T06:36:47.380Z,101361.24
2022-09-12T06:39:20.781Z,101362.95
2022-09-12T06:41:52.553Z,101363.85
2022-09-12T06:44:30.662Z,101358.17
2022-09-12T06:46:58.917Z,101362.84
2022-09-12T06:49:27.094Z,101353.55
2022-09-12T06:51:55.453Z,101362.19
2022-09-12T06:54:23.752Z,101364.43
2022-09-12T06:56:52.240Z,101369.13
2022-09-12T06:59:20.417Z,101369.85
2022-09-12T07:01:48.682Z,101370.59
2022-09-12T07:04:16.969Z,101369.05
2022-09-12T07:06:45.157Z,101368.59
2022-09-12T07:09:17.138Z,101370.39
2022-09-12T07:11:46.877Z,101372.87
2022-09-12T07:14:15.888Z,101375.98
2022-09-12T07:16:44.214Z,101382.64
2022-09-12T07:19:12.511Z,101382.53
2022-09-12T07:21:41.761Z,101380.52
2022-09-12T07:24:11.051Z,101356.08
2022-09-12T07:26:42.447Z,101382.73
2022-09-12T07:29:35.864Z,101384.27
2022-09-12T07:32:05.825Z,101380.44
2022-09-12T07:34:37.810Z,101380.61
2022-09-12T07:37:06.620Z,101381.67
2022-09-12T07:39:34.827Z,101384.16
2022-09-12T07:42:03.060Z,101385.73
2022-09-12T07:44:32.829Z,101387.00
2022-09-12T07:47:01.774Z,101391.90
2022-09-12T07:49:30.659Z,101397.03
2022-09-12T07:51:58.827Z,101392.69
2022-09-12T07:54:27.091Z,101395.80
2022-09-12T07:56:55.754Z,101398.77
2022-09-12T07:59:48.487Z,101402.30
2022-09-12T08:02:17.699Z,101399.48
2022-09-12T08:04:48.569Z,101404.15
2022-09-12T08:07:18.512Z,101410.48
2022-09-12T08:09:47.103Z,101407.43
2022-09-12T08:12:16.790Z,101407.14
2022-09-12T08:14:45.089Z,101409.73
2022-09-12T08:17:14.454Z,101412.59
2022-09-12T08:19:43.803Z,101412.80
2022-09-12T08:22:12.306Z,101414.40
2022-09-12T08:24:40.683Z,101415.03
2022-09-12T08:27:09.490Z,101420.29
2022-09-12T08:29:37.898Z,101418.56
2022-09-12T08:32:06.010Z,101424.52
2022-09-12T08:34:34.350Z,101421.38
2022-09-12T08:37:03.646Z,101422.54
2022-09-12T08:39:32.917Z,101421.38
2022-09-12T08:42:03.576Z,101423.56
2022-09-12T08:44:53.777Z,101422.60
2022-09-12T08:47:36.605Z,101428.52
2022-09-12T08:50:10.124Z,101430.52
2022-09-12T08:52:53.513Z,101430.79
2022-09-12T08:55:27.924Z,101429.70
2022-09-12T08:57:56.268Z,101430.10
2022-09-12T09:00:38.022Z,101432.29
2022-09-12T09:03:34.709Z,101430.11
2022-09-12T09:06:44.921Z,101433.75
2022-09-12T09:09:43.098Z,101435.98
2022-09-12T09:12:39.410Z,101434.48
2022-09-12T09:15:33.882Z,101431.66
2022-09-12T09:18:08.964Z,101437.27
2022-09-12T09:20:56.999Z,101437.84
2022-09-12T09:23:41.665Z,101435.20
2022-09-12T09:26:26.745Z,101423.94
2022-09-12T09:29:03.013Z,101430.23
2022-09-12T09:31:37.529Z,101430.27
2022-09-12T09:34:15.949Z,101426.89
2022-09-12T09:36:44.193Z,101428.39
2022-09-12T09:39:48.348Z,101425.87
2022-09-12T09:42:20.146Z,101419.84
2022-09-12T09:44:49.207Z,101425.89
2022-09-12T09:47:19.190Z,101429.23
2022-09-12T09:49:47.801Z,101425.61
2022-09-12T09:52:19.341Z,101428.92
2022-09-12T09:54:58.586Z,101424.47
2022-09-12T09:57:35.876Z,101428.52
2022-09-12T10:00:22.604Z,101433.13
2022-09-12T10:03:13.147Z,101432.80
2022-09-12T10:05:50.640Z,101436.70
2022-09-12T10:08:21.616Z,101436.30
2022-09-12T10:11:02.132Z,101436.58
2022-09-12T10:13:53.762Z,101407.30
2022-09-12T10:16:30.525Z,101435.56
2022-09-12T10:19:00.888Z,101426.23
2022-09-12T10:21:50.824Z,101422.98
2022-09-12T10:24:27.057Z,101425.77
2022-09-12T10:27:05.870Z,101422.91
2022-09-12T10:29:39.780Z,101420.17
2022-09-12T10:32:09.485Z,101421.16
2022-09-12T10:34:43.591Z,101424.41
2022-09-12T10:37:24.596Z,101414.98
2022-09-12T10:39:59.200Z,101415.91
2022-09-12T10:42:56.625Z,101435.11
2022-09-12T10:45:36.049Z,101438.72
2022-09-12T10:48:27.600Z,101436.52
2022-09-12T10:50:59.764Z,101438.99
2022-09-12T10:53:34.646Z,101437.66
2022-09-12T10:56:05.539Z,101442.80
2022-09-12T10:58:39.490Z,101444.34
2022-09-12T11:01:32.472Z,101448.55
2022-09-12T11:04:19.377Z,101445.05
2022-09-12T11:06:56.593Z,101445.95
2022-09-12T11:09:37.013Z,101446.65
2022-09-12T11:12:08.014Z,101445.31
2022-09-12T11:15:03.758Z,101444.48
2022-09-12T11:17:47.605Z,101446.06
2022-09-12T11:20:34.438Z,101445.98
2022-09-12T11:23:08.269Z,101448.91
2022-09-12T11:25:39.197Z,101452.09
2022-09-12T11:28:19.392Z,101449.55
2022-09-12T11:31:15.148Z,101454.85
2022-09-12T11:33:46.258Z,101458.61
2022-09-12T11:36:17.858Z,101458.20
2022-09-12T11:38:53.004Z,101452.13
2022-09-12T11:41:31.598Z,101453.46
2022-09-12T11:44:21.864Z,101449.43
2022-09-12T11:46:52.084Z,101448.05
2022-09-12T11:49:40.322Z,101446.30
2022-09-12T11:52:16.851Z,101445.48
2022-09-12T11:54:54.126Z,101445.80
2022-09-12T11:57:25.231Z,101442.91
2022-09-12T11:59:58.589Z,101445.19
2022-09-12T12:02:29.615Z,101440.33
2022-09-12T12:05:23.027Z,101447.36
2022-09-12T12:07:56.391Z,101442.58
2022-09-12T12:10:51.527Z,101447.55
2022-09-12T12:13:26.608Z,101430.67
2022-09-12T12:15:59.918Z,101453.55
2022-09-12T12:18:29.750Z,101453.75
2022-09-12T12:21:29.796Z,101451.33
2022-09-12T12:24:10.228Z,101446.77
2022-09-12T12:26:41.143Z,101457.95
2022-09-12T12:29:13.522Z,101464.58
2022-09-12T12:32:10.514Z,101472.08
2022-09-12T12:34:46.548Z,101476.70
2022-09-12T12:37:19.042Z,101478.38
2022-09-12T12:39:48.452Z,101470.36
2022-09-12T12:42:35.149Z,101466.33
2022-09-12T12:45:23.783Z,101465.40
2022-09-12T12:48:00.267Z,101464.91
2022-09-12T12:50:31.994Z,101468.90
2022-09-12T12:53:04.466Z,101476.92
2022-09-12T12:55:50.154Z,101474.75
2022-09-12T12:58:40.776Z,101476.96
2022-09-12T13:01:20.873Z,101458.62
2022-09-12T13:03:59.799Z,101469.14
2022-09-12T13:06:38.440Z,101471.88
2022-09-12T13:09:19.278Z,101474.51
2022-09-12T13:11:55.914Z,101473.01
2022-09-12T13:14:33.364Z,101474.45
2022-09-12T13:17:06.340Z,101469.54
2022-09-12T13:19:38.306Z,101468.21
2022-09-12T13:22:09.254Z,101469.95
2022-09-12T13:24:54.484Z,101469.84
2022-09-12T13:27:25.587Z,101470.27
2022-09-12T13:30:16.594Z,101470.52
2022-09-12T13:32:44.853Z,101469.42
2022-09-12T13:35:22.387Z,101468.91
2022-09-12T13:38:19.642Z,101470.20
2022-09-12T13:41:20.410Z,101474.22
2022-09-12T13:43:49.748Z,101476.44
2022-09-12T13:46:27.323Z,101477.66
2022-09-12T13:48:56.452Z,101472.60
2022-09-12T13:51:27.880Z,101471.29
2022-09-12T13:53:59.232Z,101463.36
2022-09-12T13:56:27.512Z,101460.02
2022-09-12T13:58:58.276Z,101463.32
2022-09-12T14:01:47.055Z,101459.33
2022-09-12T14:04:45.250Z,101459.63
2022-09-12T14:07:21.165Z,101458.79
2022-09-12T14:09:59.195Z,101456.88
2022-09-12T14:12:35.564Z,101457.69
2022-09-12T14:15:04.421Z,101460.91
2022-09-12T14:17:34.899Z,101462.27
2022-09-12T14:20:08.999Z,101468.43
2022-09-12T14:22:45.592Z,101470.64
2022-09-12T14:25:25.294Z,101464.85
2022-09-12T14:27:55.754Z,101462.11
2022-09-12T14:30:26.182Z,101460.13
2022-09-12T14:33:12.485Z,101454.54
2022-09-12T14:36:18.408Z,101452.25
2022-09-12T14:39:00.021Z,101452.92
2022-09-12T14:41:36.257Z,101450.30
2022-09-12T14:44:08.977Z,101450.44
2022-09-12T14:46:42.479Z,101453.11
2022-09-12T14:49:10.516Z,101451.33
2022-09-12T14:51:47.106Z,101450.41
2022-09-12T14:54:30.420Z,101450.32
2022-09-12T14:57:21.898Z,101452.83
2022-09-12T15:00:26.588Z,101455.30
2022-09-12T15:02:54.999Z,101462.31
2022-09-12T15:05:26.664Z,101470.00
2022-09-12T15:08:01.877Z,101471.35
2022-09-12T15:10:31.524Z,101472.85
2022-09-12T15:13:08.555Z,101470.98
2022-09-12T15:15:38.741Z,101475.09
2022-09-12T15:18:07.246Z,101470.80
2022-09-12T15:20:41.447Z,101472.34
2022-09-12T15:23:40.457Z,101471.14
2022-09-12T15:26:12.590Z,101471.67
2022-09-12T15:28:41.127Z,101471.77
2022-09-12T15:31:30.756Z,101459.14
2022-09-12T15:34:01.250Z,101468.61
2022-09-12T15:36:30.057Z,101470.75
2022-09-12T15:38:58.712Z,101471.97
2022-09-12T15:41:32.674Z,101473.53
2022-09-12T15:44:01.363Z,101476.09
2022-09-12T15:46:29.665Z,101480.97
2022-09-12T15:48:57.932Z,101478.77
2022-09-12T15:51:26.213Z,101479.91
2022-09-12T15:53:54.649Z,101471.40
2022-09-12T15:56:23.493Z,101482.41
2022-09-12T15:58:59.316Z,101485.45
2022-09-12T16:01:29.252Z,101489.36
2022-09-12T16:03:58.046Z,101488.84
2022-09-12T16:06:28.036Z,101483.27
2022-09-12T16:08:56.233Z,101483.50
2022-09-12T16:11:26.178Z,101483.68
2022-09-12T16:13:55.818Z,101485.16
2022-09-12T16:16:24.244Z,101484.02
2022-09-12T16:18:52.789Z,101481.16
2022-09-12T16:21:20.993Z,101482.24
2022-09-12T16:23:49.527Z,101482.67
2022-09-12T16:26:17.953Z,101487.86
2022-09-12T16:28:46.347Z,101486.48
2022-09-12T16:31:14.813Z,101487.20
2022-09-12T16:33:43.104Z,101478.97
2022-09-12T16:36:14.206Z,101482.50
2022-09-12T16:38:44.759Z,101485.58
2022-09-12T16:41:14.318Z,101486.83
2022-09-12T16:43:43.222Z,101488.80
2022-09-12T16:46:14.075Z,101482.75
2022-09-12T16:48:52.524Z,101479.05
2022-09-12T16:51:24.261Z,101473.64
2022-09-12T16:53:54.166Z,101473.41
2022-09-12T16:56:22.850Z,101472.36
2022-09-12T16:58:51.787Z,101458.22
2022-09-12T17:01:25.450Z,101473.52
2022-09-12T17:03:55.442Z,101476.09
2022-09-12T17:06:25.343Z,101474.20
2022-09-12T17:08:56.309Z,101472.67
2022-09-12T17:11:27.527Z,101473.21
2022-09-12T17:14:06.735Z,101476.98
2022-09-12T17:16:40.351Z,101472.12
2022-09-12T17:19:15.840Z,101473.05
2022-09-12T17:21:47.265Z,101476.40
2022-09-12T17:24:16.709Z,101476.98
2022-09-12T17:26:45.921Z,101476.52
2022-09-12T17:29:15.092Z,101478.55
2022-09-12T17:31:44.753Z,101479.40
2022-09-12T17:34:17.934Z,101464.65
2022-09-12T17:36:48.405Z,101479.00
2022-09-12T17:39:17.012Z,101478.79
2022-09-12T17:41:46.252Z,101479.40
2022-09-12T17:44:15.244Z,101481.64
2022-09-12T17:46:44.948Z,101485.10
2022-09-12T17:50:30.387Z,101468.80
2022-09-12T17:52:57.581Z,101489.48
2022-09-12T17:55:26.581Z,101491.88
2022-09-12T17:58:48.725Z,101488.41
2022-09-12T18:01:35.738Z,101489.66
2022-09-12T18:04:04.024Z,101483.04
2022-09-12T18:06:33.002Z,101485.67
2022-09-12T18:09:02.605Z,101481.59
2022-09-12T18:11:31.744Z,101478.63
2022-09-12T18:14:00.696Z,101478.80
2022-09-12T18:17:48.221Z,101478.45
2022-09-12T18:20:16.904Z,101482.54
2022-09-12T18:22:49.001Z,101481.16
2022-09-12T18:25:17.198Z,101481.10
2022-09-12T18:27:45.372Z,101485.66
2022-09-12T18:30:22.793Z,101480.38
2022-09-12T18:32:51.096Z,101479.45
2022-09-12T18:35:19.328Z,101480.36
2022-09-12T18:37:47.975Z,101483.50
2022-09-12T18:40:16.256Z,101487.16
2022-09-12T18:42:44.494Z,101486.88
2022-09-12T18:45:12.922Z,101489.77
2022-09-12T18:47:41.671Z,101488.57
2022-09-12T18:50:09.994Z,101489.50
2022-09-12T18:52:38.154Z,101490.20
2022-09-12T18:55:06.470Z,101495.17
2022-09-12T18:57:35.342Z,101493.25
2022-09-12T19:00:09.341Z,101492.26
2022-09-12T19:02:40.136Z,101496.45
2022-09-12T19:05:08.596Z,101492.75
2022-09-12T19:07:36.804Z,101488.12
2022-09-12T19:10:05.316Z,101488.21
2022-09-12T19:12:33.908Z,101487.91
2022-09-12T19:15:02.172Z,101488.10
2022-09-12T19:17:30.413Z,101487.45
2022-09-12T19:19:58.620Z,101483.21
2022-09-12T19:22:26.847Z,101482.34
2022-09-12T19:24:55.047Z,101480.73
2022-09-12T19:27:23.247Z,101484.09
2022-09-12T19:29:51.534Z,101479.95
2022-09-12T19:32:19.795Z,101483.68
2022-09-12T19:34:48.063Z,101481.71
2022-09-12T19:37:17.348Z,101481.27
2022-09-12T19:39:46.326Z,101463.65
2022-09-12T19:42:14.622Z,101475.62
2022-09-12T19:44:42.929Z,101471.84
2022-09-12T19:47:11.322Z,101470.81
2022-09-12T19:49:39.472Z,101468.77
2022-09-12T19:52:08.051Z,101459.20
2022-09-12T19:54:37.256Z,101462.25
2022-09-12T19:57:05.501Z,101459.52
2022-09-12T19:59:33.704Z,101458.30
2022-09-12T20:02:01.974Z,101456.19
2022-09-12T20:04:32.477Z,101440.10
2022-09-12T20:07:00.680Z,101450.64
2022-09-12T20:09:29.016Z,101448.10
2022-09-12T20:11:57.250Z,101447.31
2022-09-12T20:14:25.385Z,101446.06
2022-09-12T20:16:53.509Z,101444.88
2022-09-12T20:19:21.722Z,101438.16
2022-09-12T20:21:49.859Z,101425.69
2022-09-12T20:24:18.078Z,101441.65
2022-09-12T20:26:46.967Z,101442.23
2022-09-12T20:29:15.170Z,101412.48
2022-09-12T20:31:44.406Z,101436.84
2022-09-12T20:34:18.678Z,101435.00
2022-09-12T20:37:15.978Z,101435.69
2022-09-12T20:39:46.828Z,101434.58
2022-09-12T20:42:18.494Z,101432.33
2022-09-12T20:44:46.741Z,101432.73
2022-09-12T20:47:15.051Z,101429.13
2022-09-12T20:49:43.653Z,101427.81
2022-09-12T20:52:11.999Z,101425.48
2022-09-12T20:54:40.301Z,101426.33
2022-09-12T20:58:25.575Z,101412.71
2022-09-12T21:00:53.805Z,101418.64
2022-09-12T21:03:22.061Z,101419.61
2022-09-12T21:05:50.281Z,101415.98
2022-09-12T21:08:44.325Z,101415.98
2022-09-12T21:11:13.398Z,101419.13
2022-09-12T21:13:42.200Z,101416.80
2022-09-12T21:16:15.889Z,101414.95
2022-09-12T21:18:52.862Z,101418.39
2022-09-12T21:21:22.382Z,101405.73
2022-09-12T21:23:55.444Z,101409.73
2022-09-12T21:26:23.643Z,101417.15
2022-09-12T21:29:44.658Z,101413.83
2022-09-12T21:32:14.319Z,101413.96
2022-09-12T21:34:42.723Z,101400.58
2022-09-12T21:37:10.876Z,101413.34
2022-09-12T21:39:41.061Z,101412.23
2022-09-12T21:42:59.926Z,101412.52
2022-09-12T21:45:28.459Z,101417.66
2022-09-12T21:47:59.172Z,101414.05
2022-09-12T21:50:27.738Z,101420.16
2022-09-12T21:52:55.880Z,101413.10
2022-09-12T21:55:28.678Z,101415.37
2022-09-12T21:58:50.835Z,101414.01
2022-09-12T22:01:22.300Z,101416.98
2022-09-12T22:03:52.420Z,101411.33
2022-09-12T22:06:24.140Z,101412.11
2022-09-12T22:08:56.435Z,101405.99
2022-09-12T22:11:25.763Z,101405.80
2022-09-12T22:13:54.040Z,101401.83
2022-09-12T22:16:22.178Z,101405.06
2022-09-12T22:18:50.943Z,101404.89
2022-09-12T22:21:22.183Z,101405.21
2022-09-12T22:24:10.419Z,101388.65
2022-09-12T22:26:44.118Z,101404.77
2022-09-12T22:29:16.155Z,101402.13
2022-09-12T22:31:44.781Z,101401.46
2022-09-12T22:34:13.712Z,101398.40
2022-09-12T22:36:42.431Z,101401.87
2022-09-12T22:39:11.612Z,101397.58
2022-09-12T22:41:40.395Z,101399.45
2022-09-12T22:44:10.732Z,101398.96
2022-09-12T22:46:39.661Z,101401.59
2022-09-12T22:49:08.045Z,101397.17
2022-09-12T22:52:03.144Z,101400.89
2022-09-12T22:54:31.416Z,101395.44
2022-09-12T22:56:59.784Z,101397.30
2022-09-12T22:59:27.951Z,101389.48
2022-09-12T23:01:56.107Z,101386.57
2022-09-12T23:04:24.257Z,101385.20
2022-09-12T23:06:53.195Z,101377.38
2022-09-12T23:09:21.405Z,101376.59
2022-09-12T23:11:49.569Z,101381.16
2022-09-12T23:14:18.269Z,101372.44
2022-09-12T23:16:46.447Z,101374.40
2022-09-12T23:19:14.720Z,101372.55
2022-09-12T23:21:42.900Z,101372.33
2022-09-12T23:24:11.182Z,101379.20
2022-09-12T23:26:39.470Z,101382.11
2022-09-12T23:29:07.714Z,101375.91
2022-09-12T23:35:43.102Z,101365.29
2022-09-12T23:38:14.504Z,101362.45
2022-09-12T23:40:42.975Z,101363.63
2022-09-12T23:44:04.056Z,101365.45
2022-09-12T23:46:32.605Z,101355.36
2022-09-12T23:49:04.208Z,101363.59
2022-09-12T23:51:32.632Z,101360.63
2022-09-12T23:54:05.299Z,101358.86
2022-09-12T23:56:33.466Z,101361.47
2022-09-12T23:59:01.731Z,101358.29
